Time,TemperatureF,DewpointF,PressureIn,WindDirection,WindDirectionDegrees,WindSpeedMPH,WindSpeedGustMPH,Humidity,HourlyPrecipIn,Conditions,Clouds,dailyrainin,SoftwareType,DateUTC
2013-10-17 00:00:00,60.4,59.9,29.98,West,270,0.0,0.0,98,0.00,,,0.00,meteohub,2013-10-17 04:00:00,
2013-10-17 00:01:00,60.4,59.9,29.98,West,270,0.0,0.0,98,0.00,,,0.00,meteohub,2013-10-17 04:01:00,
2013-10-17 00:02:00,60.4,59.9,29.98,West,270,0.0,0.0,98,0.00,,,0.00,meteohub,2013-10-17 04:02:00,
2013-10-17 00:07:00,60.4,59.9,29.98,West,270,0.0,0.0,98,0.00,,,0.00,meteohub,2013-10-17 04:07:00,
2013-10-17 00:12:00,60.4,59.9,29.98,West,270,0.0,0.0,98,0.00,,,0.00,meteohub,2013-10-17 04:12:00,
2013-10-17 00:17:00,60.3,59.7,29.98,West,270,0.0,0.0,98,0.00,,,0.00,meteohub,2013-10-17 04:17:00,
2013-10-17 00:22:00,60.3,59.7,29.98,West,270,0.0,0.0,98,0.00,,,0.00,meteohub,2013-10-17 04:22:00,
2013-10-17 00:27:00,60.4,59.9,29.98,West,270,0.0,0.0,98,0.00,,,0.00,meteohub,2013-10-17 04:27:00,
2013-10-17 00:32:00,60.4,59.9,29.98,West,270,0.0,0.0,98,0.00,,,0.00,meteohub,2013-10-17 04:32:00,
2013-10-17 00:37:00,60.4,59.9,29.98,West,270,0.0,0.0,98,0.00,,,0.00,meteohub,2013-10-17 04:37:00,
2013-10-17 00:42:00,60.3,59.7,29.98,West,270,0.0,0.0,98,0.00,,,0.00,meteohub,2013-10-17 04:42:00,
2013-10-17 00:47:00,60.3,59.7,29.98,West,270,0.0,0.0,98,0.00,,,0.00,meteohub,2013-10-17 04:47:00,
2013-10-17 00:52:00,60.3,59.7,29.98,West,270,0.0,0.0,98,0.00,,,0.00,meteohub,2013-10-17 04:52:00,
2013-10-17 00:58:00,60.4,59.9,29.98,West,270,0.0,0.0,98,0.00,,,0.00,meteohub,2013-10-17 04:58:00,
2013-10-17 01:03:00,60.4,59.9,29.98,West,270,0.0,0.0,98,0.00,,,0.00,meteohub,2013-10-17 05:03:00,
2013-10-17 01:08:00,60.3,59.7,29.98,West,270,0.0,0.0,98,0.00,,,0.00,meteohub,2013-10-17 05:08:00,
2013-10-17 01:13:00,60.3,59.7,29.98,West,270,0.0,0.0,98,0.00,,,0.00,meteohub,2013-10-17 05:13:00,
2013-10-17 01:18:00,60.3,59.7,29.98,West,270,0.0,0.0,98,0.00,,,0.00,meteohub,2013-10-17 05:18:00,
2013-10-17 01:23:00,60.1,59.5,29.98,West,270,0.0,0.0,98,0.00,,,0.00,meteohub,2013-10-17 05:23:00,
2013-10-17 01:28:00,60.1,59.5,29.98,West,270,0.0,0.0,98,0.00,,,0.00,meteohub,2013-10-17 05:28:00,
2013-10-17 01:33:00,60.3,59.7,29.98,West,270,0.0,0.0,98,0.00,,,0.00,meteohub,2013-10-17 05:33:00,
2013-10-17 01:38:00,60.3,59.7,29.98,West,270,0.0,0.0,98,0.00,,,0.00,meteohub,2013-10-17 05:38:00,
2013-10-17 01:43:00,60.3,59.7,29.98,West,270,0.0,0.0,98,0.00,,,0.00,meteohub,2013-10-17 05:43:00,
2013-10-17 01:48:00,60.3,59.7,29.98,West,270,0.0,0.0,98,0.00,,,0.00,meteohub,2013-10-17 05:48:00,
2013-10-17 01:53:00,60.4,59.9,29.98,West,270,0.0,0.0,98,0.00,,,0.00,meteohub,2013-10-17 05:53:00,
2013-10-17 01:58:00,60.6,60.1,29.98,South,180,0.0,0.0,98,0.00,,,0.00,meteohub,2013-10-17 05:58:00,
2013-10-17 02:03:00,60.6,60.1,29.98,South,180,0.0,0.0,98,0.00,,,0.00,meteohub,2013-10-17 06:03:00,
2013-10-17 02:08:00,60.6,60.1,29.98,South,180,0.0,0.0,98,0.00,,,0.00,meteohub,2013-10-17 06:08:00,
2013-10-17 02:13:00,60.6,60.1,29.98,South,180,0.0,0.0,98,0.00,,,0.00,meteohub,2013-10-17 06:13:00,
2013-10-17 02:18:00,60.8,60.3,29.98,South,180,0.0,0.0,98,0.00,,,0.00,meteohub,2013-10-17 06:18:00,
2013-10-17 02:23:00,61.0,60.4,29.98,South,180,0.0,0.0,98,0.00,,,0.00,meteohub,2013-10-17 06:23:00,
2013-10-17 02:28:00,61.0,60.4,29.98,South,180,0.0,0.0,98,0.00,,,0.00,meteohub,2013-10-17 06:28:00,
2013-10-17 02:33:00,61.0,60.4,29.98,South,180,0.0,0.0,98,0.00,,,0.00,meteohub,2013-10-17 06:33:00,
2013-10-17 02:38:00,61.0,60.4,29.98,South,180,0.0,0.0,98,0.00,,,0.00,meteohub,2013-10-17 06:38:00,
2013-10-17 02:43:00,60.8,60.3,29.95,South,180,0.0,0.0,98,0.00,,,0.00,meteohub,2013-10-17 06:43:00,
2013-10-17 02:48:00,60.8,60.3,29.95,South,180,0.0,0.0,98,0.00,,,0.00,meteohub,2013-10-17 06:48:00,
2013-10-17 02:53:00,60.6,60.1,29.95,South,180,0.0,0.0,98,0.00,,,0.00,meteohub,2013-10-17 06:53:00,
2013-10-17 02:58:00,60.8,60.3,29.95,South,180,0.0,0.0,98,0.00,,,0.00,meteohub,2013-10-17 06:58:00,
2013-10-17 03:03:00,60.8,60.3,29.95,South,180,0.0,0.0,98,0.00,,,0.00,meteohub,2013-10-17 07:03:00,
2013-10-17 03:08:00,60.8,60.3,29.95,South,180,0.0,0.0,98,0.00,,,0.00,meteohub,2013-10-17 07:08:00,
2013-10-17 03:13:00,60.8,60.3,29.95,South,180,0.0,0.0,98,0.00,,,0.00,meteohub,2013-10-17 07:13:00,
2013-10-17 03:18:00,60.8,60.3,29.95,South,180,0.0,0.0,98,0.00,,,0.00,meteohub,2013-10-17 07:18:00,
2013-10-17 03:23:00,61.0,60.4,29.95,South,180,0.0,0.0,98,0.00,,,0.00,meteohub,2013-10-17 07:23:00,
2013-10-17 03:28:00,61.0,60.4,29.95,South,180,0.0,0.0,98,0.00,,,0.00,meteohub,2013-10-17 07:28:00,
2013-10-17 03:33:00,60.8,60.3,29.95,South,180,0.0,0.0,98,0.00,,,0.00,meteohub,2013-10-17 07:33:00,
2013-10-17 03:38:00,60.8,60.3,29.95,South,180,0.0,0.0,98,0.00,,,0.00,meteohub,2013-10-17 07:38:00,
2013-10-17 03:43:00,60.8,60.3,29.95,South,180,0.0,0.0,98,0.00,,,0.00,meteohub,2013-10-17 07:43:00,
2013-10-17 03:48:00,60.6,60.1,29.95,South,180,0.0,0.0,98,0.00,,,0.00,meteohub,2013-10-17 07:48:00,
2013-10-17 03:53:00,60.4,59.9,29.95,South,180,0.0,0.0,98,0.00,,,0.00,meteohub,2013-10-17 07:53:00,
2013-10-17 03:58:00,60.6,60.1,29.95,South,180,0.0,0.0,98,0.00,,,0.00,meteohub,2013-10-17 07:58:00,
2013-10-17 04:03:00,60.4,59.9,29.95,South,180,0.0,0.0,98,0.00,,,0.00,meteohub,2013-10-17 08:03:00,
2013-10-17 04:08:00,60.3,59.7,29.95,South,180,0.0,0.0,98,0.00,,,0.00,meteohub,2013-10-17 08:08:00,
2013-10-17 04:13:00,60.1,59.5,29.95,South,180,0.0,0.0,98,0.00,,,0.00,meteohub,2013-10-17 08:13:00,
2013-10-17 04:18:00,59.9,59.4,29.95,South,180,0.0,0.0,98,0.00,,,0.00,meteohub,2013-10-17 08:18:00,
2013-10-17 04:23:00,59.9,59.4,29.95,South,180,0.0,0.0,98,0.00,,,0.00,meteohub,2013-10-17 08:23:00,
2013-10-17 04:28:00,59.7,59.2,29.95,South,180,0.0,0.0,98,0.00,,,0.00,meteohub,2013-10-17 08:28:00,
2013-10-17 04:33:00,59.5,59.0,29.95,South,180,0.0,0.0,98,0.00,,,0.00,meteohub,2013-10-17 08:33:00,
2013-10-17 04:38:00,59.4,58.8,29.95,South,180,0.0,0.0,98,0.00,,,0.00,meteohub,2013-10-17 08:38:00,
2013-10-17 04:43:00,59.4,58.8,29.95,South,180,0.0,0.0,98,0.00,,,0.00,meteohub,2013-10-17 08:43:00,
2013-10-17 04:48:00,59.2,58.6,29.95,South,180,0.0,0.0,98,0.00,,,0.00,meteohub,2013-10-17 08:48:00,
2013-10-17 04:53:00,59.2,58.6,29.95,South,180,0.0,0.0,98,0.00,,,0.00,meteohub,2013-10-17 08:53:00,
2013-10-17 04:58:00,59.2,58.6,29.92,South,180,0.0,0.0,98,0.00,,,0.00,meteohub,2013-10-17 08:58:00,
2013-10-17 05:03:00,59.2,58.6,29.92,South,180,0.0,0.0,98,0.00,,,0.00,meteohub,2013-10-17 09:03:00,
2013-10-17 05:08:00,59.4,58.8,29.92,South,180,0.0,0.0,98,0.00,,,0.00,meteohub,2013-10-17 09:08:00,
2013-10-17 05:13:00,59.5,59.0,29.95,South,180,0.0,0.0,98,0.00,,,0.00,meteohub,2013-10-17 09:13:00,
2013-10-17 05:18:00,59.5,59.0,29.95,South,180,0.0,0.0,98,0.00,,,0.00,meteohub,2013-10-17 09:18:00,
2013-10-17 05:23:00,59.7,59.2,29.95,South,180,0.0,0.0,98,0.00,,,0.00,meteohub,2013-10-17 09:23:00,
2013-10-17 05:28:00,59.7,59.2,29.95,South,180,0.0,0.0,98,0.00,,,0.00,meteohub,2013-10-17 09:28:00,
2013-10-17 05:33:00,59.9,59.4,29.95,South,180,0.0,0.0,98,0.00,,,0.00,meteohub,2013-10-17 09:33:00,
2013-10-17 05:38:00,59.7,59.2,29.95,South,180,0.0,0.0,98,0.00,,,0.00,meteohub,2013-10-17 09:38:00,
2013-10-17 05:43:00,59.7,59.2,29.95,South,180,0.0,0.0,98,0.00,,,0.00,meteohub,2013-10-17 09:43:00,
2013-10-17 05:48:00,59.7,59.2,29.95,South,180,0.0,0.0,98,0.00,,,0.00,meteohub,2013-10-17 09:48:00,
2013-10-17 05:53:00,59.7,59.2,29.95,South,180,0.0,0.0,98,0.00,,,0.00,meteohub,2013-10-17 09:53:00,
2013-10-17 05:58:00,59.7,59.2,29.95,South,180,0.0,0.0,98,0.00,,,0.00,meteohub,2013-10-17 09:58:00,
2013-10-17 06:03:00,59.9,59.4,29.95,South,180,0.0,0.0,98,0.00,,,0.00,meteohub,2013-10-17 10:03:00,
2013-10-17 06:08:00,59.7,59.2,29.95,South,180,0.0,0.0,98,0.00,,,0.00,meteohub,2013-10-17 10:08:00,
2013-10-17 06:13:00,59.9,59.4,29.95,South,180,0.0,0.0,98,0.00,,,0.00,meteohub,2013-10-17 10:13:00,
2013-10-17 06:18:00,59.9,59.4,29.95,South,180,0.0,0.0,98,0.00,,,0.00,meteohub,2013-10-17 10:18:00,
2013-10-17 06:23:00,59.9,59.4,29.95,South,180,0.0,0.0,98,0.00,,,0.00,meteohub,2013-10-17 10:23:00,
2013-10-17 06:28:00,60.1,59.5,29.95,South,180,0.0,0.0,98,0.00,,,0.00,meteohub,2013-10-17 10:28:00,
2013-10-17 06:33:00,60.1,59.5,29.95,South,180,0.0,0.0,98,0.00,,,0.00,meteohub,2013-10-17 10:33:00,
2013-10-17 06:38:00,60.3,59.7,29.95,WSW,248,0.0,0.0,98,0.00,,,0.00,meteohub,2013-10-17 10:38:00,
2013-10-17 06:43:00,60.4,59.9,29.95,WSW,248,0.0,0.0,98,0.00,,,0.00,meteohub,2013-10-17 10:43:00,
2013-10-17 06:48:00,60.4,59.9,29.95,WSW,248,0.0,0.0,98,0.00,,,0.00,meteohub,2013-10-17 10:48:00,
2013-10-17 06:53:00,60.4,59.9,29.95,WSW,248,0.0,0.0,98,0.00,,,0.00,meteohub,2013-10-17 10:53:00,
2013-10-17 06:58:00,60.4,59.9,29.95,WSW,248,0.0,0.0,98,0.00,,,0.00,meteohub,2013-10-17 10:58:00,
2013-10-17 07:04:00,60.3,59.7,29.95,WSW,248,0.0,0.0,98,0.00,,,0.00,meteohub,2013-10-17 11:04:00,
2013-10-17 07:09:00,60.3,59.7,29.95,WSW,248,0.0,0.0,98,0.00,,,0.00,meteohub,2013-10-17 11:09:00,
2013-10-17 07:14:00,60.3,59.7,29.95,WSW,248,0.0,0.0,98,0.00,,,0.00,meteohub,2013-10-17 11:14:00,
2013-10-17 07:19:00,60.1,59.5,29.95,WSW,248,0.0,0.0,98,0.00,,,0.00,meteohub,2013-10-17 11:19:00,
2013-10-17 07:24:00,60.3,59.7,29.95,WSW,248,0.0,0.0,98,0.00,,,0.00,meteohub,2013-10-17 11:24:00,
2013-10-17 07:29:00,60.3,59.7,29.95,WSW,248,0.0,0.0,98,0.00,,,0.00,meteohub,2013-10-17 11:29:00,
2013-10-17 07:34:00,60.3,59.7,29.95,WSW,248,0.0,0.0,98,0.00,,,0.00,meteohub,2013-10-17 11:34:00,
2013-10-17 07:39:00,60.3,59.7,29.95,WSW,248,0.0,0.0,98,0.00,,,0.00,meteohub,2013-10-17 11:39:00,
2013-10-17 07:44:00,60.4,59.9,29.95,WSW,248,0.0,0.0,98,0.00,,,0.00,meteohub,2013-10-17 11:44:00,
2013-10-17 07:49:00,60.4,59.9,29.95,WSW,248,0.0,0.0,98,0.00,,,0.00,meteohub,2013-10-17 11:49:00,
2013-10-17 07:54:00,60.4,59.9,29.95,WSW,248,0.0,0.0,98,0.00,,,0.00,meteohub,2013-10-17 11:54:00,
2013-10-17 07:59:00,60.6,60.1,29.95,WSW,248,0.0,0.0,98,0.00,,,0.00,meteohub,2013-10-17 11:59:00,
2013-10-17 08:04:00,60.4,59.9,29.95,WSW,248,0.0,0.0,98,0.00,,,0.00,meteohub,2013-10-17 12:04:00,
2013-10-17 08:09:00,61.0,60.4,29.95,ESE,112,0.0,0.0,98,0.00,,,0.00,meteohub,2013-10-17 12:09:00,
2013-10-17 08:14:00,61.2,60.6,29.95,ESE,112,0.0,0.0,98,0.00,,,0.00,meteohub,2013-10-17 12:14:00,
2013-10-17 08:19:00,61.3,60.8,29.95,ESE,112,0.0,0.0,98,0.00,,,0.00,meteohub,2013-10-17 12:19:00,
2013-10-17 08:24:00,61.3,60.8,29.95,ESE,112,0.0,0.0,98,0.00,,,0.00,meteohub,2013-10-17 12:24:00,
2013-10-17 08:29:00,61.5,61.0,29.95,ESE,112,0.0,0.0,98,0.00,,,0.00,meteohub,2013-10-17 12:29:00,
2013-10-17 08:34:00,61.9,61.3,29.95,ESE,112,0.0,0.0,98,0.00,,,0.00,meteohub,2013-10-17 12:34:00,
2013-10-17 08:39:00,62.1,61.5,29.95,ESE,112,0.0,0.0,98,0.00,,,0.00,meteohub,2013-10-17 12:39:00,
2013-10-17 08:44:00,62.2,61.7,29.95,East,90,0.0,0.0,98,0.00,,,0.00,meteohub,2013-10-17 12:44:00,
2013-10-17 08:49:00,62.6,62.1,29.95,WNW,292,0.0,0.0,98,0.00,,,0.00,meteohub,2013-10-17 12:49:00,
2013-10-17 08:55:00,62.8,62.2,29.95,WNW,292,0.0,0.0,98,0.00,,,0.00,meteohub,2013-10-17 12:55:00,
2013-10-17 09:00:00,62.8,62.2,29.95,SSE,158,0.0,0.0,98,0.00,,,0.00,meteohub,2013-10-17 13:00:00,
2013-10-17 09:05:00,63.0,62.4,29.95,West,270,0.0,3.0,98,0.00,,,0.00,meteohub,2013-10-17 13:05:00,
2013-10-17 09:10:00,63.0,62.4,29.95,SW,225,0.0,3.0,98,0.00,,,0.00,meteohub,2013-10-17 13:10:00,
2013-10-17 09:15:00,63.3,62.8,29.95,WSW,248,0.0,3.0,98,0.00,,,0.00,meteohub,2013-10-17 13:15:00,
2013-10-17 09:20:00,63.5,63.0,29.95,West,270,2.0,4.0,98,0.00,,,0.00,meteohub,2013-10-17 13:20:00,
2013-10-17 09:25:00,63.7,63.1,29.95,SW,225,0.0,4.0,98,0.00,,,0.00,meteohub,2013-10-17 13:25:00,
2013-10-17 09:30:00,64.0,63.5,29.95,WSW,248,2.0,5.0,98,0.00,,,0.00,meteohub,2013-10-17 13:30:00,
2013-10-17 09:35:00,64.4,63.9,29.95,West,270,0.0,5.0,98,0.00,,,0.00,meteohub,2013-10-17 13:35:00,
2013-10-17 09:40:00,65.1,64.6,29.95,West,270,3.0,5.0,98,0.00,,,0.00,meteohub,2013-10-17 13:40:00,
2013-10-17 09:45:00,65.5,64.9,29.95,SE,135,0.0,5.0,98,0.00,,,0.00,meteohub,2013-10-17 13:45:00,
2013-10-17 09:50:00,65.8,65.3,29.95,WNW,292,5.0,8.0,98,0.00,,,0.00,meteohub,2013-10-17 13:50:00,
2013-10-17 09:55:00,66.0,64.6,29.95,SW,225,0.0,8.0,95,0.00,,,0.00,meteohub,2013-10-17 13:55:00,
2013-10-17 10:00:00,66.6,64.2,29.95,SW,225,3.0,5.0,92,0.00,,,0.00,meteohub,2013-10-17 14:00:00,
2013-10-17 10:05:00,66.7,63.3,29.95,West,270,0.0,4.0,89,0.00,,,0.00,meteohub,2013-10-17 14:05:00,
2013-10-17 10:10:00,67.1,62.4,29.95,ESE,112,0.0,4.0,85,0.00,,,0.00,meteohub,2013-10-17 14:10:00,
2013-10-17 10:15:00,67.3,61.2,29.95,SE,135,0.0,3.0,81,0.00,,,0.00,meteohub,2013-10-17 14:15:00,
2013-10-17 10:20:00,67.3,59.9,29.95,WSW,248,0.0,6.0,77,0.00,,,0.00,meteohub,2013-10-17 14:20:00,
2013-10-17 10:25:00,67.5,59.5,29.95,NNW,338,0.0,6.0,76,0.00,,,0.00,meteohub,2013-10-17 14:25:00,
2013-10-17 10:30:00,67.8,59.5,29.95,WNW,292,0.0,6.0,75,0.00,,,0.00,meteohub,2013-10-17 14:30:00,
2013-10-17 10:35:00,68.2,59.9,29.95,WSW,248,0.0,5.0,75,0.00,,,0.00,meteohub,2013-10-17 14:35:00,
2013-10-17 10:40:00,68.5,59.2,29.95,WSW,248,3.0,4.0,72,0.00,,,0.00,meteohub,2013-10-17 14:40:00,
2013-10-17 10:45:00,68.9,59.5,29.95,West,270,0.0,4.0,72,0.00,,,0.00,meteohub,2013-10-17 14:45:00,
2013-10-17 10:50:00,69.3,59.5,29.95,SSE,158,0.0,4.0,71,0.00,,,0.00,meteohub,2013-10-17 14:50:00,
2013-10-17 10:55:00,69.3,58.3,29.95,WNW,292,4.0,5.0,68,0.00,,,0.00,meteohub,2013-10-17 14:55:00,
2013-10-17 11:00:00,69.1,57.2,29.95,WSW,248,2.0,5.0,66,0.00,,,0.00,meteohub,2013-10-17 15:00:00,
2013-10-17 11:05:00,69.3,57.0,29.95,WSW,248,3.0,6.0,65,0.00,,,0.00,meteohub,2013-10-17 15:05:00,
2013-10-17 11:10:00,69.4,56.7,29.95,SW,225,0.0,6.0,64,0.00,,,0.00,meteohub,2013-10-17 15:10:00,
2013-10-17 11:15:00,69.4,56.3,29.95,West,270,3.0,6.0,63,0.00,,,0.00,meteohub,2013-10-17 15:15:00,
2013-10-17 11:20:00,69.6,56.8,29.95,WNW,292,0.0,8.0,64,0.00,,,0.00,meteohub,2013-10-17 15:20:00,
2013-10-17 11:25:00,70.0,57.7,29.95,WNW,292,0.0,8.0,65,0.00,,,0.00,meteohub,2013-10-17 15:25:00,
2013-10-17 11:30:00,70.9,58.5,29.95,SW,225,0.0,4.0,65,0.00,,,0.00,meteohub,2013-10-17 15:30:00,
2013-10-17 11:35:00,71.1,56.8,29.95,NNW,338,0.0,6.0,61,0.00,,,0.00,meteohub,2013-10-17 15:35:00,
2013-10-17 11:40:00,72.0,56.8,29.95,WSW,248,3.0,6.0,59,0.00,,,0.00,meteohub,2013-10-17 15:40:00,
2013-10-17 11:45:00,71.8,55.2,29.95,SSW,202,3.0,6.0,56,0.00,,,0.00,meteohub,2013-10-17 15:45:00,
2013-10-17 11:50:00,72.3,54.1,29.95,SW,225,4.0,8.0,53,0.00,,,0.00,meteohub,2013-10-17 15:50:00,
2013-10-17 11:55:00,73.2,54.5,29.92,SSW,202,3.0,8.0,52,0.00,,,0.00,meteohub,2013-10-17 15:55:00,
2013-10-17 12:00:00,73.2,52.9,29.92,WNW,292,6.0,8.0,49,0.00,,,0.00,meteohub,2013-10-17 16:00:00,
2013-10-17 12:05:00,73.2,52.9,29.92,NNW,338,4.0,8.0,49,0.00,,,0.00,meteohub,2013-10-17 16:05:00,
2013-10-17 12:11:00,73.0,52.7,29.92,NW,315,2.0,7.0,49,0.00,,,0.00,meteohub,2013-10-17 16:11:00,
2013-10-17 12:16:00,73.9,54.1,29.92,SSW,202,4.0,7.0,50,0.00,,,0.00,meteohub,2013-10-17 16:16:00,
2013-10-17 12:21:00,74.7,55.4,29.92,East,90,2.0,7.0,51,0.00,,,0.00,meteohub,2013-10-17 16:21:00,
2013-10-17 12:26:00,74.3,52.7,29.92,WSW,248,5.0,5.0,47,0.00,,,0.00,meteohub,2013-10-17 16:26:00,
2013-10-17 12:31:00,73.6,52.2,29.92,WNW,292,7.0,8.0,47,0.00,,,0.00,meteohub,2013-10-17 16:31:00,
2013-10-17 12:36:00,74.1,53.8,29.92,WNW,292,4.0,8.0,49,0.00,,,0.00,meteohub,2013-10-17 16:36:00,
2013-10-17 12:41:00,74.5,54.1,29.92,WNW,292,4.0,8.0,49,0.00,,,0.00,meteohub,2013-10-17 16:41:00,
2013-10-17 12:46:00,74.8,54.3,29.92,SE,135,4.0,7.0,49,0.00,,,0.00,meteohub,2013-10-17 16:46:00,
2013-10-17 12:51:00,75.2,53.1,29.92,SW,225,3.0,7.0,46,0.00,,,0.00,meteohub,2013-10-17 16:51:00,
2013-10-17 12:56:00,74.7,52.0,29.92,South,180,2.0,8.0,45,0.00,,,0.00,meteohub,2013-10-17 16:56:00,
2013-10-17 13:01:00,74.7,52.0,29.92,West,270,2.0,8.0,45,0.00,,,0.00,meteohub,2013-10-17 17:01:00,
2013-10-17 13:06:00,74.1,51.4,29.92,West,270,4.0,8.0,45,0.00,,,0.00,meteohub,2013-10-17 17:06:00,
2013-10-17 13:11:00,74.1,52.0,29.92,WSW,248,3.0,7.0,46,0.00,,,0.00,meteohub,2013-10-17 17:11:00,
2013-10-17 13:16:00,74.1,52.5,29.92,WSW,248,4.0,7.0,47,0.00,,,0.00,meteohub,2013-10-17 17:16:00,
2013-10-17 13:21:00,74.3,53.4,29.92,West,270,4.0,6.0,48,0.00,,,0.00,meteohub,2013-10-17 17:21:00,
2013-10-17 13:26:00,74.1,52.0,29.92,SW,225,5.0,5.0,46,0.00,,,0.00,meteohub,2013-10-17 17:26:00,
2013-10-17 13:31:00,74.1,52.5,29.92,South,180,3.0,7.0,47,0.00,,,0.00,meteohub,2013-10-17 17:31:00,
2013-10-17 13:36:00,74.7,53.1,29.92,WSW,248,0.0,7.0,47,0.00,,,0.00,meteohub,2013-10-17 17:36:00,
2013-10-17 13:41:00,75.2,51.8,29.89,WSW,248,5.0,7.0,44,0.00,,,0.00,meteohub,2013-10-17 17:41:00,
2013-10-17 13:46:00,74.7,51.3,29.89,WSW,248,8.0,9.0,44,0.00,,,0.00,meteohub,2013-10-17 17:46:00,
2013-10-17 13:51:00,74.7,52.0,29.89,SW,225,4.0,9.0,45,0.00,,,0.00,meteohub,2013-10-17 17:51:00,
2013-10-17 13:56:00,74.3,50.9,29.89,West,270,3.0,9.0,44,0.00,,,0.00,meteohub,2013-10-17 17:56:00,
2013-10-17 14:01:00,74.1,51.4,29.89,West,270,0.0,8.0,45,0.00,,,0.00,meteohub,2013-10-17 18:01:00,
2013-10-17 14:06:00,74.1,52.5,29.89,SW,225,3.0,8.0,47,0.00,,,0.00,meteohub,2013-10-17 18:06:00,
2013-10-17 14:11:00,73.9,51.8,29.89,SW,225,3.0,8.0,46,0.00,,,0.00,meteohub,2013-10-17 18:11:00,
2013-10-17 14:16:00,73.8,52.3,29.89,West,270,4.0,8.0,47,0.00,,,0.00,meteohub,2013-10-17 18:16:00,
2013-10-17 14:21:00,73.9,53.1,29.89,WSW,248,5.0,6.0,48,0.00,,,0.00,meteohub,2013-10-17 18:21:00,
2013-10-17 14:26:00,73.6,52.7,29.89,West,270,0.0,5.0,48,0.00,,,0.00,meteohub,2013-10-17 18:26:00,
2013-10-17 14:31:00,73.8,54.0,29.89,South,180,2.0,6.0,50,0.00,,,0.00,meteohub,2013-10-17 18:31:00,
2013-10-17 14:36:00,74.1,53.2,29.89,WSW,248,0.0,6.0,48,0.00,,,0.00,meteohub,2013-10-17 18:36:00,
2013-10-17 14:41:00,74.3,54.5,29.89,SSW,202,0.0,6.0,50,0.00,,,0.00,meteohub,2013-10-17 18:41:00,
2013-10-17 14:46:00,74.5,54.1,29.89,WSW,248,0.0,5.0,49,0.00,,,0.00,meteohub,2013-10-17 18:46:00,
2013-10-17 14:51:00,74.3,53.4,29.89,SSW,202,0.0,5.0,48,0.00,,,0.00,meteohub,2013-10-17 18:51:00,
2013-10-17 14:56:00,74.3,52.2,29.89,SW,225,0.0,5.0,46,0.00,,,0.00,meteohub,2013-10-17 18:56:00,
2013-10-17 15:01:00,74.1,52.5,29.89,SW,225,4.0,5.0,47,0.00,,,0.00,meteohub,2013-10-17 19:01:00,
2013-10-17 15:06:00,73.9,53.1,29.89,SW,225,2.0,5.0,48,0.00,,,0.00,meteohub,2013-10-17 19:06:00,
2013-10-17 15:12:00,74.1,53.8,29.89,WSW,248,4.0,5.0,49,0.00,,,0.00,meteohub,2013-10-17 19:12:00,
2013-10-17 15:17:00,73.8,52.9,29.89,WSW,248,4.0,5.0,48,0.00,,,0.00,meteohub,2013-10-17 19:17:00,
2013-10-17 15:22:00,73.6,53.2,29.89,WNW,292,0.0,5.0,49,0.00,,,0.00,meteohub,2013-10-17 19:22:00,
2013-10-17 15:27:00,73.6,53.2,29.89,West,270,3.0,5.0,49,0.00,,,0.00,meteohub,2013-10-17 19:27:00,
2013-10-17 15:31:00,73.6,53.2,29.89,West,270,0.0,5.0,49,0.00,,,0.00,meteohub,2013-10-17 19:31:00,
2013-10-17 15:36:00,74.3,54.0,29.89,WNW,292,3.0,5.0,49,0.00,,,0.00,meteohub,2013-10-17 19:36:00,
2013-10-17 15:41:00,74.8,55.0,29.86,SSE,158,2.0,5.0,50,0.00,,,0.00,meteohub,2013-10-17 19:41:00,
2013-10-17 15:46:00,74.8,53.8,29.86,SSE,158,0.0,5.0,48,0.00,,,0.00,meteohub,2013-10-17 19:46:00,
2013-10-17 15:51:00,74.1,52.5,29.86,WSW,248,2.0,5.0,47,0.00,,,0.00,meteohub,2013-10-17 19:51:00,
2013-10-17 15:56:00,74.3,52.7,29.89,NNW,338,0.0,6.0,47,0.00,,,0.00,meteohub,2013-10-17 19:56:00,
2013-10-17 16:01:00,73.8,52.3,29.89,WSW,248,4.0,6.0,47,0.00,,,0.00,meteohub,2013-10-17 20:01:00,
2013-10-17 16:06:00,73.6,52.7,29.89,WSW,248,3.0,6.0,48,0.00,,,0.00,meteohub,2013-10-17 20:06:00,
2013-10-17 16:11:00,73.8,53.4,29.86,South,180,5.0,6.0,49,0.00,,,0.00,meteohub,2013-10-17 20:11:00,
2013-10-17 16:16:00,73.6,52.7,29.86,WSW,248,2.0,6.0,48,0.00,,,0.00,meteohub,2013-10-17 20:16:00,
2013-10-17 16:21:00,73.0,53.2,29.86,WSW,248,3.0,5.0,50,0.00,,,0.00,meteohub,2013-10-17 20:21:00,
2013-10-17 16:26:00,72.9,54.7,29.89,West,270,0.0,5.0,53,0.00,,,0.00,meteohub,2013-10-17 20:26:00,
2013-10-17 16:31:00,72.9,56.3,29.89,West,270,0.0,4.0,56,0.00,,,0.00,meteohub,2013-10-17 20:31:00,
2013-10-17 16:36:00,72.7,57.0,29.89,West,270,0.0,3.0,58,0.00,,,0.00,meteohub,2013-10-17 20:36:00,
2013-10-17 16:41:00,72.1,57.6,29.86,West,270,0.0,0.0,60,0.00,,,0.00,meteohub,2013-10-17 20:41:00,
2013-10-17 16:46:00,72.0,57.4,29.86,West,270,0.0,0.0,60,0.00,,,0.00,meteohub,2013-10-17 20:46:00,
2013-10-17 16:51:00,72.1,57.6,29.86,West,270,0.0,0.0,60,0.00,,,0.00,meteohub,2013-10-17 20:51:00,
2013-10-17 16:56:00,72.0,58.3,29.86,West,270,0.0,0.0,62,0.00,,,0.00,meteohub,2013-10-17 20:56:00,
2013-10-17 17:01:00,71.8,58.5,29.86,West,270,0.0,0.0,63,0.00,,,0.00,meteohub,2013-10-17 21:01:00,
2013-10-17 17:06:00,71.6,58.8,29.86,South,180,0.0,2.0,64,0.00,,,0.00,meteohub,2013-10-17 21:06:00,
2013-10-17 17:11:00,71.4,58.6,29.86,South,180,0.0,2.0,64,0.00,,,0.00,meteohub,2013-10-17 21:11:00,
2013-10-17 17:16:00,71.4,59.0,29.86,South,180,0.0,2.0,65,0.00,,,0.00,meteohub,2013-10-17 21:16:00,
2013-10-17 17:21:00,71.4,59.5,29.86,South,180,0.0,0.0,66,0.00,,,0.00,meteohub,2013-10-17 21:21:00,
2013-10-17 17:26:00,71.2,58.8,29.86,South,180,0.0,0.0,65,0.00,,,0.00,meteohub,2013-10-17 21:26:00,
2013-10-17 17:31:00,71.1,59.5,29.86,South,180,0.0,0.0,67,0.00,,,0.00,meteohub,2013-10-17 21:31:00,
2013-10-17 17:36:00,71.1,59.2,29.86,WSW,248,0.0,0.0,66,0.00,,,0.00,meteohub,2013-10-17 21:36:00,
2013-10-17 17:41:00,71.1,59.5,29.86,WSW,248,0.0,0.0,67,0.00,,,0.00,meteohub,2013-10-17 21:41:00,
2013-10-17 17:46:00,70.9,59.0,29.86,SW,225,0.0,0.0,66,0.00,,,0.00,meteohub,2013-10-17 21:46:00,
2013-10-17 17:51:00,70.9,59.0,29.86,South,180,0.0,0.0,66,0.00,,,0.00,meteohub,2013-10-17 21:51:00,
2013-10-17 17:56:00,70.9,59.0,29.86,SSE,158,0.0,2.0,66,0.00,,,0.00,meteohub,2013-10-17 21:56:00,
2013-10-17 18:01:00,70.9,59.0,29.86,SSE,158,0.0,3.0,66,0.00,,,0.00,meteohub,2013-10-17 22:01:00,
2013-10-17 18:06:00,70.7,58.8,29.86,South,180,0.0,3.0,66,0.00,,,0.00,meteohub,2013-10-17 22:06:00,
2013-10-17 18:12:00,70.7,58.8,29.86,WNW,292,0.0,3.0,66,0.00,,,0.00,meteohub,2013-10-17 22:12:00,
2013-10-17 18:17:00,70.9,58.1,29.86,WSW,248,0.0,4.0,64,0.00,,,0.00,meteohub,2013-10-17 22:17:00,
2013-10-17 18:22:00,70.7,58.3,29.86,SW,225,0.0,4.0,65,0.00,,,0.00,meteohub,2013-10-17 22:22:00,
2013-10-17 18:27:00,70.7,58.8,29.86,SW,225,0.0,4.0,66,0.00,,,0.00,meteohub,2013-10-17 22:27:00,
2013-10-17 18:32:00,70.5,59.0,29.86,SW,225,0.0,0.0,67,0.00,,,0.00,meteohub,2013-10-17 22:32:00,
2013-10-17 18:37:00,70.2,58.6,29.86,SSE,158,0.0,0.0,67,0.00,,,0.00,meteohub,2013-10-17 22:37:00,
2013-10-17 18:42:00,70.2,58.6,29.86,SSE,158,0.0,0.0,67,0.00,,,0.00,meteohub,2013-10-17 22:42:00,
2013-10-17 18:47:00,70.2,59.2,29.86,SSE,158,0.0,0.0,68,0.00,,,0.00,meteohub,2013-10-17 22:47:00,
2013-10-17 18:52:00,70.0,59.0,29.86,SSW,202,0.0,0.0,68,0.00,,,0.00,meteohub,2013-10-17 22:52:00,
2013-10-17 18:57:00,70.0,59.0,29.86,East,90,2.0,3.0,68,0.00,,,0.00,meteohub,2013-10-17 22:57:00,
2013-10-17 19:02:00,70.2,58.6,29.86,SE,135,0.0,3.0,67,0.00,,,0.00,meteohub,2013-10-17 23:02:00,
2013-10-17 19:07:00,70.2,58.6,29.86,WSW,248,0.0,4.0,67,0.00,,,0.00,meteohub,2013-10-17 23:07:00,
2013-10-17 19:12:00,70.3,58.8,29.86,WSW,248,3.0,4.0,67,0.00,,,0.00,meteohub,2013-10-17 23:12:00,
2013-10-17 19:17:00,70.3,58.5,29.86,South,180,0.0,4.0,66,0.00,,,0.00,meteohub,2013-10-17 23:17:00,
2013-10-17 19:22:00,70.2,58.6,29.86,West,270,0.0,4.0,67,0.00,,,0.00,meteohub,2013-10-17 23:22:00,
2013-10-17 19:27:00,69.8,59.2,29.86,West,270,0.0,4.0,69,0.00,,,0.00,meteohub,2013-10-17 23:27:00,
2013-10-17 19:32:00,69.8,59.2,29.86,NW,315,0.0,3.0,69,0.00,,,0.00,meteohub,2013-10-17 23:32:00,
2013-10-17 19:37:00,69.8,59.5,29.86,NW,315,0.0,4.0,70,0.00,,,0.00,meteohub,2013-10-17 23:37:00,
2013-10-17 19:42:00,69.6,59.7,29.86,NW,315,0.0,4.0,71,0.00,,,0.00,meteohub,2013-10-17 23:42:00,
2013-10-17 19:47:00,69.4,59.5,29.86,NW,315,0.0,2.0,71,0.00,,,0.00,meteohub,2013-10-17 23:47:00,
2013-10-17 19:52:00,69.1,60.1,29.86,NW,315,0.0,0.0,73,0.00,,,0.00,meteohub,2013-10-17 23:52:00,
2013-10-17 19:57:00,69.1,60.1,29.86,NW,315,0.0,0.0,73,0.00,,,0.00,meteohub,2013-10-17 23:57:00,
2013-10-17 20:02:00,68.9,60.3,29.86,NW,315,0.0,0.0,74,0.00,,,0.00,meteohub,2013-10-18 00:02:00,
2013-10-17 20:07:00,68.9,61.0,29.86,SW,225,0.0,0.0,76,0.00,,,0.00,meteohub,2013-10-18 00:07:00,
2013-10-17 20:12:00,68.7,60.8,29.86,East,90,0.0,0.0,76,0.00,,,0.00,meteohub,2013-10-18 00:12:00,
2013-10-17 20:17:00,68.7,61.2,29.86,East,90,0.0,0.0,77,0.00,,,0.00,meteohub,2013-10-18 00:17:00,
2013-10-17 20:22:00,68.5,61.3,29.86,ESE,112,0.0,0.0,78,0.00,,,0.00,meteohub,2013-10-18 00:22:00,
2013-10-17 20:27:00,68.5,61.7,29.86,NNE,22,0.0,0.0,79,0.00,,,0.00,meteohub,2013-10-18 00:27:00,
2013-10-17 20:32:00,68.7,61.9,29.86,SSE,158,0.0,3.0,79,0.00,,,0.00,meteohub,2013-10-18 00:32:00,
2013-10-17 20:37:00,68.9,61.3,29.86,WSW,248,3.0,5.0,77,0.00,,,0.00,meteohub,2013-10-18 00:37:00,
2013-10-17 20:42:00,69.3,61.3,29.86,WSW,248,3.0,5.0,76,0.00,,,0.00,meteohub,2013-10-18 00:42:00,
2013-10-17 20:47:00,69.6,60.6,29.86,WSW,248,3.0,6.0,73,0.00,,,0.00,meteohub,2013-10-18 00:47:00,
2013-10-17 20:52:00,69.4,60.1,29.86,SW,225,2.0,6.0,72,0.00,,,0.00,meteohub,2013-10-18 00:52:00,
2013-10-17 20:57:00,69.6,60.3,29.86,SSE,158,3.0,6.0,72,0.00,,,0.00,meteohub,2013-10-18 00:57:00,
2013-10-17 21:02:00,69.6,59.7,29.86,WNW,292,4.0,6.0,71,0.00,,,0.00,meteohub,2013-10-18 01:02:00,
2013-10-17 21:07:00,69.4,60.1,29.86,West,270,0.0,6.0,72,0.00,,,0.00,meteohub,2013-10-18 01:07:00,
2013-10-17 21:12:00,69.3,59.9,29.89,WSW,248,5.0,6.0,72,0.00,,,0.00,meteohub,2013-10-18 01:12:00,
2013-10-17 21:17:00,69.4,59.5,29.89,NW,315,3.0,5.0,71,0.00,,,0.00,meteohub,2013-10-18 01:17:00,
2013-10-17 21:22:00,69.6,59.7,29.89,WNW,292,4.0,6.0,71,0.00,,,0.00,meteohub,2013-10-18 01:22:00,
2013-10-17 21:27:00,69.6,59.4,29.89,WNW,292,5.0,6.0,70,0.00,,,0.00,meteohub,2013-10-18 01:27:00,
2013-10-17 21:32:00,69.8,59.2,29.89,West,270,2.0,6.0,69,0.00,,,0.00,meteohub,2013-10-18 01:32:00,
2013-10-17 21:37:00,69.8,59.2,29.89,West,270,4.0,5.0,69,0.00,,,0.00,meteohub,2013-10-18 01:37:00,
2013-10-17 21:42:00,69.8,59.2,29.89,WSW,248,5.0,6.0,69,0.00,,,0.00,meteohub,2013-10-18 01:42:00,
2013-10-17 21:47:00,69.8,59.2,29.89,WSW,248,4.0,6.0,69,0.00,,,0.00,meteohub,2013-10-18 01:47:00,
2013-10-17 21:52:00,69.8,59.2,29.89,WSW,248,9.0,9.0,69,0.00,,,0.00,meteohub,2013-10-18 01:52:00,
2013-10-17 21:57:00,69.8,59.2,29.89,WSW,248,7.0,9.0,69,0.00,,,0.00,meteohub,2013-10-18 01:57:00,
2013-10-17 22:02:00,69.8,59.2,29.89,WSW,248,4.0,9.0,69,0.00,,,0.00,meteohub,2013-10-18 02:02:00,
2013-10-17 22:07:00,69.6,59.4,29.89,WSW,248,3.0,9.0,70,0.00,,,0.00,meteohub,2013-10-18 02:07:00,
2013-10-17 22:12:00,69.6,59.4,29.89,WSW,248,3.0,8.0,70,0.00,,,0.00,meteohub,2013-10-18 02:12:00,
2013-10-17 22:17:00,69.6,59.4,29.89,WSW,248,4.0,8.0,70,0.00,,,0.00,meteohub,2013-10-18 02:17:00,
2013-10-17 22:22:00,69.6,59.4,29.89,WNW,292,4.0,8.0,70,0.00,,,0.00,meteohub,2013-10-18 02:22:00,
2013-10-17 22:27:00,69.6,59.4,29.89,NNW,338,4.0,8.0,70,0.00,,,0.00,meteohub,2013-10-18 02:27:00,
2013-10-17 22:32:00,69.6,59.7,29.89,WSW,248,6.0,8.0,71,0.00,,,0.00,meteohub,2013-10-18 02:32:00,
2013-10-17 22:37:00,69.6,59.4,29.89,WSW,248,2.0,9.0,70,0.00,,,0.00,meteohub,2013-10-18 02:37:00,
2013-10-17 22:42:00,69.6,59.4,29.89,WSW,248,5.0,9.0,70,0.00,,,0.00,meteohub,2013-10-18 02:42:00,
2013-10-17 22:47:00,69.6,59.7,29.89,WSW,248,3.0,9.0,71,0.00,,,0.00,meteohub,2013-10-18 02:47:00,
2013-10-17 22:52:00,69.6,59.7,29.89,SW,225,3.0,8.0,71,0.00,,,0.00,meteohub,2013-10-18 02:52:00,
2013-10-17 22:57:00,69.4,59.5,29.89,South,180,0.0,8.0,71,0.00,,,0.00,meteohub,2013-10-18 02:57:00,
2013-10-17 23:02:00,69.3,59.9,29.89,WSW,248,2.0,8.0,72,0.00,,,0.00,meteohub,2013-10-18 03:02:00,
2013-10-17 23:07:00,69.3,60.3,29.89,WSW,248,3.0,8.0,73,0.00,,,0.00,meteohub,2013-10-18 03:07:00,
2013-10-17 23:12:00,69.3,60.3,29.89,NNW,338,3.0,8.0,73,0.00,,,0.00,meteohub,2013-10-18 03:12:00,
2013-10-17 23:17:00,69.1,60.4,29.89,SW,225,3.0,6.0,74,0.00,,,0.00,meteohub,2013-10-18 03:17:00,
2013-10-17 23:22:00,69.1,60.4,29.89,North,0,3.0,6.0,74,0.00,,,0.00,meteohub,2013-10-18 03:22:00,
2013-10-17 23:27:00,69.3,60.3,29.89,SSW,202,5.0,8.0,73,0.00,,,0.00,meteohub,2013-10-18 03:27:00,
2013-10-17 23:32:00,69.3,60.3,29.89,WSW,248,3.0,8.0,73,0.00,,,0.00,meteohub,2013-10-18 03:32:00,
2013-10-17 23:37:00,69.1,60.1,29.89,SW,225,4.0,8.0,73,0.00,,,0.00,meteohub,2013-10-18 03:37:00,
2013-10-17 23:42:00,69.1,60.1,29.89,West,270,5.0,8.0,73,0.00,,,0.00,meteohub,2013-10-18 03:42:00,
2013-10-17 23:47:00,69.1,60.1,29.89,SW,225,5.0,8.0,73,0.00,,,0.00,meteohub,2013-10-18 03:47:00,
2013-10-17 23:52:00,68.9,59.9,29.89,WNW,292,5.0,8.0,73,0.00,,,0.00,meteohub,2013-10-18 03:52:00,
2013-10-17 23:57:00,68.7,60.1,29.89,WSW,248,3.0,8.0,74,0.00,,,0.00,meteohub,2013-10-18 03:57:00,